Time;durP1;ratioP1;P1;durP2;ratioP2;P2;SDS_P1;SDS_P2;PMS_P1;PMS_P2;Temp;Humidity;BMP_temperature;BMP_pressure;BME280_temperature;BME280_humidity;BME280_pressure;Samples;Min_cycle;Max_cycle;Signal;HPM_P1;HPM_P2
2022/08/25 00:00:42;;;;;;;2.92;2.47;;;21.10;94.60;;;;;;4967710;28;20065;-81
2022/08/25 00:03:08;;;;;;;2.78;2.08;;;21.10;94.80;;;;;;4969586;28;20034;-80
2022/08/25 00:05:34;;;;;;;3.05;2.42;;;21.10;94.90;;;;;;4968324;28;20024;-80
2022/08/25 00:08:00;;;;;;;2.95;2.10;;;21.10;95.00;;;;;;4967904;28;20557;-80
2022/08/25 00:10:26;;;;;;;3.30;1.90;;;21.10;95.10;;;;;;4962559;28;20033;-79
2022/08/25 00:12:52;;;;;;;4.10;2.00;;;21.00;95.20;;;;;;4952816;28;20580;-79
2022/08/25 00:15:17;;;;;;;8.13;2.47;;;21.00;95.20;;;;;;4954115;28;20458;-79
2022/08/25 00:17:43;;;;;;;4.63;1.95;;;21.00;95.30;;;;;;4966877;28;20038;-80
2022/08/25 00:20:09;;;;;;;3.55;2.35;;;21.00;95.40;;;;;;4968903;28;20058;-80
2022/08/25 00:22:35;;;;;;;3.55;2.38;;;21.00;95.50;;;;;;4972396;28;20038;-80
2022/08/25 00:25:01;;;;;;;2.75;2.25;;;21.00;95.60;;;;;;4959249;28;20050;-80
2022/08/25 00:27:27;;;;;;;3.22;1.95;;;21.00;95.60;;;;;;4970065;28;20529;-80
2022/08/25 00:29:52;;;;;;;3.45;2.03;;;20.90;95.70;;;;;;4972121;28;20514;-80
2022/08/25 00:32:19;;;;;;;5.10;2.78;;;20.90;95.70;;;;;;4968021;28;20022;-80
2022/08/25 00:34:45;;;;;;;4.43;2.60;;;20.90;95.90;;;;;;4972888;28;20035;-80
2022/08/25 00:37:11;;;;;;;3.47;2.17;;;20.90;96.10;;;;;;4969425;28;20117;-80
2022/08/25 00:39:38;;;;;;;4.43;2.53;;;20.90;96.40;;;;;;4968366;28;20496;-80
2022/08/25 00:42:05;;;;;;;3.45;2.35;;;20.90;96.40;;;;;;4968284;28;20078;-81
2022/08/25 00:44:32;;;;;;;4.03;2.10;;;20.80;96.40;;;;;;4981210;28;20039;-80
2022/08/25 00:47:00;;;;;;;7.85;2.70;;;20.80;96.50;;;;;;4975809;28;20503;-80
2022/08/25 00:49:34;;;;;;;3.08;2.47;;;20.80;96.70;;;;;;4976175;28;20475;-79
2022/08/25 00:52:04;;;;;;;3.70;1.98;;;20.70;96.80;;;;;;4989031;28;20019;-80
2022/08/25 00:54:39;;;;;;;2.97;2.28;;;20.80;97.00;;;;;;4995750;28;20066;-80
2022/08/25 00:57:07;;;;;;;3.17;2.35;;;20.70;97.20;;;;;;4970731;28;20411;-80
2022/08/25 00:59:33;;;;;;;3.83;2.60;;;20.70;97.30;;;;;;4987417;28;20030;-80
2022/08/25 01:02:00;;;;;;;3.78;2.75;;;20.70;97.40;;;;;;4976548;28;20401;-80
2022/08/25 01:04:26;;;;;;;3.83;2.30;;;20.70;97.50;;;;;;4989878;28;20026;-80
2022/08/25 01:06:54;;;;;;;3.63;2.75;;;20.60;97.70;;;;;;4978790;28;20027;-80
2022/08/25 01:09:20;;;;;;;3.50;3.00;;;20.60;97.80;;;;;;4995393;28;20030;-80
2022/08/25 01:11:46;;;;;;;3.65;2.78;;;20.60;97.90;;;;;;4976089;28;20023;-80
2022/08/25 01:14:18;;;;;;;4.45;2.75;;;20.60;98.10;;;;;;4977454;28;20065;-80
2022/08/25 01:16:45;;;;;;;4.72;3.08;;;20.60;98.20;;;;;;4974381;28;20546;-81
2022/08/25 01:19:14;;;;;;;4.20;3.17;;;20.50;98.30;;;;;;4974837;28;20035;-80
2022/08/25 01:21:46;;;;;;;4.78;2.88;;;20.50;98.40;;;;;;4981551;28;20249;-78
2022/08/25 01:24:35;;;;;;;3.72;2.72;;;20.50;98.60;;;;;;4996271;28;20066;-79
2022/08/25 01:27:01;;;;;;;4.95;2.85;;;20.40;98.60;;;;;;4994216;28;20041;-79
2022/08/25 01:29:28;;;;;;;4.28;2.58;;;20.50;98.80;;;;;;4981141;28;20656;-80
2022/08/25 01:32:07;;;;;;;3.75;3.00;;;20.40;99.00;;;;;;4989430;28;20435;-80
2022/08/25 01:34:39;;;;;;;5.38;2.45;;;20.30;99.30;;;;;;4990592;28;20027;-80
2022/08/25 01:37:06;;;;;;;3.80;2.30;;;20.30;99.50;;;;;;4975507;28;20154;-81
2022/08/25 01:39:35;;;;;;;3.60;2.67;;;20.30;99.70;;;;;;4977170;28;20046;-81
2022/08/25 01:42:10;;;;;;;3.90;2.95;;;20.20;99.90;;;;;;4986867;28;20033;-80
2022/08/25 01:44:38;;;;;;;3.42;2.40;;;20.20;99.90;;;;;;4988712;28;20223;-80
2022/08/25 01:47:05;;;;;;;3.63;3.05;;;20.20;99.90;;;;;;4992987;28;20033;-80
2022/08/25 01:49:31;;;;;;;2.97;2.50;;;20.10;99.90;;;;;;4992084;28;20442;-79
2022/08/25 01:52:28;;;;;;;5.28;3.22;;;20.10;99.90;;;;;;4971373;28;20026;-80
2022/08/25 01:54:54;;;;;;;4.82;2.78;;;20.10;99.90;;;;;;4973701;28;20117;-80
2022/08/25 01:57:21;;;;;;;4.05;2.70;;;20.10;99.90;;;;;;4976736;28;20154;-79
2022/08/25 01:59:46;;;;;;;3.50;2.30;;;20.10;99.90;;;;;;4970937;28;20053;-81
2022/08/25 02:02:12;;;;;;;3.28;2.35;;;20.10;99.90;;;;;;4973119;28;20062;-81
2022/08/25 02:04:38;;;;;;;3.20;2.40;;;20.10;99.90;;;;;;4970109;28;20474;-81
2022/08/25 02:07:06;;;;;;;2.95;2.17;;;20.20;99.90;;;;;;4984341;28;20038;-81
2022/08/25 02:09:33;;;;;;;3.33;2.22;;;20.20;99.90;;;;;;4970019;28;20101;-81
2022/08/25 02:11:59;;;;;;;3.15;2.83;;;20.20;99.90;;;;;;4972318;28;20042;-81
2022/08/25 02:14:25;;;;;;;4.32;2.30;;;20.30;99.90;;;;;;4971414;28;20110;-80
2022/08/25 02:16:52;;;;;;;4.50;2.90;;;20.30;99.90;;;;;;4982875;28;20047;-81
2022/08/25 02:19:19;;;;;;;3.67;2.45;;;20.30;99.90;;;;;;4967506;28;20120;-81
2022/08/25 02:21:45;;;;;;;3.90;2.75;;;20.30;99.90;;;;;;4964415;28;20031;-80
2022/08/25 02:24:11;;;;;;;4.50;2.60;;;20.40;99.90;;;;;;4965724;28;20434;-81
2022/08/25 02:26:37;;;;;;;4.80;3.75;;;20.30;99.90;;;;;;4966339;28;20058;-80
2022/08/25 02:29:06;;;;;;;4.03;3.13;;;20.30;99.90;;;;;;4975220;28;20023;-80
2022/08/25 02:31:32;;;;;;;6.85;3.80;;;20.20;99.90;;;;;;4972840;28;20029;-81
2022/08/25 02:33:58;;;;;;;4.32;3.65;;;20.10;99.90;;;;;;4969907;28;20467;-80
2022/08/25 02:36:24;;;;;;;4.72;3.33;;;20.10;99.90;;;;;;4973956;28;20030;-81
2022/08/25 02:38:50;;;;;;;6.03;4.25;;;20.00;99.90;;;;;;4971538;28;20026;-81
2022/08/25 02:41:20;;;;;;;5.65;4.20;;;19.90;99.90;;;;;;4968462;28;20112;-81
2022/08/25 02:43:47;;;;;;;7.10;4.13;;;19.90;99.90;;;;;;4967190;28;20031;-80
2022/08/25 02:46:15;;;;;;;6.15;4.18;;;19.80;99.90;;;;;;4970186;28;20027;-80
2022/08/25 02:48:40;;;;;;;7.18;4.32;;;19.70;99.90;;;;;;4971971;28;20101;-80
2022/08/25 02:51:08;;;;;;;5.25;3.53;;;19.60;99.90;;;;;;4973737;28;20078;-80
2022/08/25 02:53:35;;;;;;;5.25;3.95;;;19.60;99.90;;;;;;4972187;28;20030;-80
2022/08/25 02:56:01;;;;;;;6.18;3.50;;;19.50;99.90;;;;;;4969484;28;20035;-80
2022/08/25 02:58:27;;;;;;;6.40;3.83;;;19.50;99.90;;;;;;4969800;28;20041;-80
2022/08/25 03:00:55;;;;;;;7.80;4.05;;;19.40;99.90;;;;;;4965608;28;20030;-80
2022/08/25 03:03:21;;;;;;;4.68;3.67;;;19.40;99.90;;;;;;4974298;28;20049;-81
2022/08/25 03:05:47;;;;;;;6.72;3.65;;;19.40;99.90;;;;;;4970643;28;20023;-81
2022/08/25 03:08:13;;;;;;;4.68;3.75;;;19.30;99.90;;;;;;4969068;28;20541;-80
2022/08/25 03:10:39;;;;;;;4.20;2.88;;;19.20;99.90;;;;;;4974235;28;20031;-80
2022/08/25 03:13:05;;;;;;;4.38;2.80;;;19.20;99.90;;;;;;4973235;28;20356;-81
2022/08/25 03:15:31;;;;;;;5.10;3.30;;;19.10;99.90;;;;;;4970731;28;20035;-80
2022/08/25 03:17:57;;;;;;;5.13;3.42;;;19.10;99.90;;;;;;4970525;28;20030;-80
2022/08/25 03:20:24;;;;;;;3.90;2.88;;;19.00;99.90;;;;;;4972324;28;20117;-80
2022/08/25 03:22:51;;;;;;;4.20;2.97;;;19.00;99.90;;;;;;4970076;28;20499;-80
2022/08/25 03:28:05;;;;;;;4.47;3.13;;;18.90;99.90;;;;;;4958761;28;20113;-80
2022/08/25 03:30:31;;;;;;;4.85;2.85;;;18.90;99.90;;;;;;4973080;28;20027;-79
2022/08/25 03:32:56;;;;;;;5.88;3.25;;;18.80;99.90;;;;;;4969181;28;20019;-80
2022/08/25 03:35:22;;;;;;;5.18;3.88;;;18.80;99.90;;;;;;4968200;28;20505;-80
2022/08/25 03:37:49;;;;;;;7.05;3.40;;;18.80;99.90;;;;;;4969514;28;20395;-80
2022/08/25 03:40:18;;;;;;;5.15;3.70;;;18.70;99.90;;;;;;4968642;28;20026;-80
2022/08/25 03:42:45;;;;;;;6.18;3.22;;;18.70;99.90;;;;;;4981530;28;20406;-80
2022/08/25 03:45:13;;;;;;;4.95;3.40;;;18.70;99.90;;;;;;4961898;28;20027;-80
2022/08/25 03:47:39;;;;;;;4.35;3.20;;;18.60;99.90;;;;;;4971905;28;20023;-80
2022/08/25 03:50:09;;;;;;;6.07;3.75;;;18.60;99.90;;;;;;4969326;28;20022;-80
2022/08/25 03:52:36;;;;;;;5.88;3.85;;;18.60;99.90;;;;;;4968399;28;20561;-80
2022/08/25 03:55:03;;;;;;;4.25;3.70;;;18.60;99.90;;;;;;4967620;28;20042;-81
2022/08/25 03:57:29;;;;;;;9.10;4.93;;;18.60;99.90;;;;;;4968805;28;20038;-80
2022/08/25 03:59:55;;;;;;;4.88;3.75;;;18.60;99.90;;;;;;4967672;28;20035;-80
2022/08/25 04:02:20;;;;;;;4.88;3.60;;;18.50;99.90;;;;;;4972007;28;20026;-80
2022/08/25 04:04:46;;;;;;;7.22;3.88;;;18.50;99.90;;;;;;4969403;28;20476;-80
2022/08/25 04:07:12;;;;;;;4.90;3.20;;;18.50;99.90;;;;;;4970525;28;20090;-80
2022/08/25 04:09:38;;;;;;;6.13;3.45;;;18.50;99.90;;;;;;4982834;28;20407;-81
2022/08/25 04:12:03;;;;;;;5.85;3.25;;;18.50;99.90;;;;;;4969173;28;20483;-80
2022/08/25 04:14:30;;;;;;;6.80;3.50;;;18.40;99.90;;;;;;4969786;28;20037;-80
2022/08/25 04:16:55;;;;;;;6.28;3.50;;;18.40;99.90;;;;;;4968470;28;20490;-80
2022/08/25 04:19:21;;;;;;;4.57;3.40;;;18.30;99.90;;;;;;4967278;28;20042;-80
2022/08/25 04:21:47;;;;;;;4.70;3.40;;;18.30;99.90;;;;;;4970046;28;20034;-80
2022/08/25 04:24:14;;;;;;;5.82;3.90;;;18.30;99.90;;;;;;4987860;28;20530;-80
2022/08/25 04:26:46;;;;;;;4.35;3.53;;;18.30;99.90;;;;;;4967747;28;20038;-81
2022/08/25 04:29:15;;;;;;;6.90;4.13;;;18.30;99.90;;;;;;4969354;28;20026;-79
2022/08/25 04:31:43;;;;;;;7.65;4.10;;;18.30;99.90;;;;;;4967087;28;20042;-80
2022/08/25 04:34:09;;;;;;;6.90;3.83;;;18.30;99.90;;;;;;4984628;28;20039;-79
2022/08/25 04:36:36;;;;;;;6.82;4.20;;;18.30;99.90;;;;;;4968362;28;20114;-79
2022/08/25 04:39:02;;;;;;;6.85;4.07;;;18.30;99.90;;;;;;4968260;28;20054;-80
2022/08/25 04:41:29;;;;;;;6.00;4.18;;;18.30;99.90;;;;;;4969281;28;20038;-80
2022/08/25 04:43:57;;;;;;;8.15;4.40;;;18.30;99.90;;;;;;4970025;28;20035;-79
2022/08/25 04:46:25;;;;;;;6.10;4.55;;;18.20;99.90;;;;;;4983999;28;20026;-80
2022/08/25 04:48:53;;;;;;;9.18;4.35;;;18.20;99.90;;;;;;4965421;28;20031;-80
2022/08/25 04:51:22;;;;;;;8.30;4.40;;;18.30;99.90;;;;;;4988194;28;20519;-79
2022/08/25 04:53:49;;;;;;;7.22;3.83;;;18.20;99.90;;;;;;4970486;28;20274;-80
2022/08/25 04:56:18;;;;;;;4.88;3.50;;;18.20;99.90;;;;;;4970168;28;20056;-80
2022/08/25 04:58:45;;;;;;;9.07;6.20;;;18.20;99.90;;;;;;4969230;28;20062;-80
2022/08/25 05:01:18;;;;;;;10.13;7.30;;;18.20;99.90;;;;;;4970642;28;20094;-79
2022/08/25 05:03:45;;;;;;;6.97;5.68;;;18.20;99.90;;;;;;4968127;28;20045;-79
2022/08/25 05:06:12;;;;;;;6.10;4.55;;;18.20;99.90;;;;;;4980970;28;20031;-80
2022/08/25 05:08:38;;;;;;;8.60;4.30;;;18.20;99.90;;;;;;4964151;28;20035;-80
2022/08/25 05:11:08;;;;;;;6.18;4.10;;;18.20;99.90;;;;;;4987600;28;20035;-79
2022/08/25 05:13:34;;;;;;;4.60;3.55;;;18.20;99.90;;;;;;4978259;28;20066;-80
2022/08/25 05:16:01;;;;;;;5.72;3.55;;;18.10;99.90;;;;;;4966685;28;20054;-79
2022/08/25 05:18:30;;;;;;;6.55;4.03;;;18.10;99.90;;;;;;4963879;28;20049;-80
2022/08/25 05:21:01;;;;;;;5.18;3.95;;;18.20;99.90;;;;;;4964862;28;20525;-80
2022/08/25 05:23:27;;;;;;;5.95;3.40;;;18.30;99.90;;;;;;4966225;28;20048;-81
2022/08/25 05:25:52;;;;;;;5.13;3.55;;;18.40;99.90;;;;;;4980037;28;21104;-80
2022/08/25 05:28:19;;;;;;;8.57;3.85;;;18.40;99.90;;;;;;4968240;28;20023;-79
2022/08/25 05:30:48;;;;;;;5.20;3.70;;;18.50;99.90;;;;;;4962519;28;20035;-79
2022/08/25 05:35:51;;;;;;;7.32;4.55;;;18.70;99.90;;;;;;4987886;28;20054;-78
2022/08/25 05:38:17;;;;;;;7.40;4.55;;;18.70;99.90;;;;;;4997915;28;20570;-78
2022/08/25 05:40:42;;;;;;;6.30;4.82;;;18.80;99.90;;;;;;4993082;28;20034;-79
2022/08/25 05:43:09;;;;;;;6.78;4.95;;;18.90;99.90;;;;;;4992606;28;20479;-79
2022/08/25 05:45:35;;;;;;;7.80;5.15;;;19.00;99.90;;;;;;5016269;28;20034;-79
2022/08/25 05:48:01;;;;;;;7.28;5.18;;;19.00;99.90;;;;;;5010397;28;20441;-79
2022/08/25 05:50:27;;;;;;;6.65;4.82;;;19.00;99.90;;;;;;5032101;28;20030;-79
2022/08/25 05:52:52;;;;;;;9.13;5.18;;;19.10;99.90;;;;;;5025877;28;20022;-78
2022/08/25 05:55:18;;;;;;;6.57;5.10;;;19.10;99.90;;;;;;5002317;28;20033;-79
2022/08/25 05:57:44;;;;;;;9.05;4.75;;;19.10;99.90;;;;;;5009349;28;20498;-79
2022/08/25 06:00:11;;;;;;;9.10;5.25;;;19.20;99.90;;;;;;5016722;28;20029;-79
2022/08/25 06:02:42;;;;;;;9.98;5.50;;;19.30;99.90;;;;;;5017080;28;20033;-79
2022/08/25 06:05:11;;;;;;;11.35;5.72;;;19.40;99.90;;;;;;5034789;28;20036;-78
2022/08/25 06:07:36;;;;;;;8.45;5.55;;;19.40;99.90;;;;;;5009111;28;20026;-78
2022/08/25 06:10:05;;;;;;;10.40;6.07;;;19.50;99.90;;;;;;5019839;28;20635;-76
2022/08/25 06:12:34;;;;;;;7.57;5.88;;;19.60;99.90;;;;;;5004194;28;20141;-78
2022/08/25 06:15:00;;;;;;;10.32;6.43;;;19.70;99.90;;;;;;5004789;28;20034;-77
2022/08/25 06:17:26;;;;;;;9.90;5.95;;;19.80;99.90;;;;;;4998523;28;20508;-78
2022/08/25 06:19:53;;;;;;;9.05;5.68;;;19.90;99.90;;;;;;5003141;28;20054;-77
2022/08/25 06:22:20;;;;;;;8.70;5.30;;;19.90;99.90;;;;;;5009352;28;20034;-78
2022/08/25 06:24:46;;;;;;;9.95;6.05;;;20.00;99.90;;;;;;5009697;28;20033;-78
2022/08/25 06:27:11;;;;;;;9.38;5.20;;;20.00;99.90;;;;;;5012102;28;20034;-77
2022/08/25 06:29:37;;;;;;;8.13;5.93;;;20.10;99.90;;;;;;4973147;28;20039;-77
2022/08/25 06:32:03;;;;;;;9.55;6.68;;;20.10;99.90;;;;;;5014366;28;20021;-78
2022/08/25 06:34:29;;;;;;;9.95;6.22;;;20.10;99.90;;;;;;5001605;28;20041;-78
2022/08/25 06:36:54;;;;;;;10.23;6.60;;;20.20;99.90;;;;;;5008568;28;20034;-76
2022/08/25 06:39:21;;;;;;;10.45;6.03;;;20.20;99.90;;;;;;5022337;28;21779;-80
2022/08/25 06:41:53;;;;;;;14.57;6.35;;;20.30;99.90;;;;;;5008212;28;20113;-78
2022/08/25 06:44:20;;;;;;;9.30;6.50;;;20.30;99.90;;;;;;5011760;28;20040;-78
2022/08/25 06:46:46;;;;;;;9.48;6.22;;;20.30;99.90;;;;;;5005899;28;20034;-76
2022/08/25 06:49:11;;;;;;;10.93;5.57;;;20.40;99.90;;;;;;5008672;28;20022;-75
2022/08/25 06:51:37;;;;;;;9.77;5.85;;;20.40;99.90;;;;;;5005633;28;20026;-75
2022/08/25 06:54:05;;;;;;;8.68;5.97;;;20.40;99.90;;;;;;5009819;28;20030;-75
2022/08/25 06:56:31;;;;;;;11.35;6.28;;;20.40;99.90;;;;;;5012308;28;20021;-75
2022/08/25 06:58:57;;;;;;;8.57;5.45;;;20.40;99.90;;;;;;5008303;28;20065;-75
2022/08/25 07:01:25;;;;;;;11.77;5.53;;;20.40;99.90;;;;;;5003645;28;21004;-77
2022/08/25 07:03:58;;;;;;;8.65;5.60;;;20.50;99.90;;;;;;5006427;28;20084;-75
2022/08/25 07:06:26;;;;;;;12.90;5.90;;;20.50;99.90;;;;;;5008281;28;20017;-77
2022/08/25 07:08:53;;;;;;;8.57;5.40;;;20.50;99.90;;;;;;5015352;28;20105;-77
2022/08/25 07:11:21;;;;;;;9.30;4.93;;;20.50;99.90;;;;;;5008864;28;20044;-77
2022/08/25 07:13:48;;;;;;;9.65;5.97;;;20.60;99.90;;;;;;5010117;28;20037;-77
2022/08/25 07:16:14;;;;;;;8.60;5.10;;;20.60;99.90;;;;;;5020124;28;20042;-76
2022/08/25 07:18:40;;;;;;;11.75;5.80;;;20.70;99.90;;;;;;5004313;28;20084;-77
2022/08/25 07:21:06;;;;;;;9.18;5.20;;;20.80;99.90;;;;;;5000468;28;20033;-77
2022/08/25 07:23:32;;;;;;;11.55;6.00;;;20.80;99.90;;;;;;5009649;28;20026;-77
2022/08/25 07:26:09;;;;;;;10.57;5.28;;;20.80;99.90;;;;;;5010916;28;20048;-77
2022/08/25 07:28:35;;;;;;;11.90;5.38;;;20.90;99.90;;;;;;4999921;28;20756;-77
2022/08/25 07:31:00;;;;;;;8.65;5.00;;;20.90;99.90;;;;;;5006698;28;20026;-77
2022/08/25 07:33:26;;;;;;;7.25;5.50;;;21.00;99.90;;;;;;5008989;28;20397;-78
2022/08/25 07:35:53;;;;;;;9.07;6.07;;;21.00;99.90;;;;;;5003793;28;20025;-78
2022/08/25 07:38:18;;;;;;;8.65;5.90;;;21.00;99.90;;;;;;5011442;28;20021;-77
2022/08/25 07:40:44;;;;;;;12.05;5.53;;;21.10;99.90;;;;;;5017791;28;20040;-78
2022/08/25 07:43:10;;;;;;;11.07;4.80;;;21.10;99.90;;;;;;5012513;28;20034;-79
2022/08/25 07:45:38;;;;;;;7.75;5.47;;;21.10;99.90;;;;;;5006714;28;20029;-77
2022/08/25 07:48:09;;;;;;;7.78;5.88;;;21.10;99.90;;;;;;5006157;28;20029;-77
2022/08/25 07:50:44;;;;;;;6.75;4.72;;;21.20;99.90;;;;;;5001041;28;20022;-80
2022/08/25 07:53:11;;;;;;;12.65;5.35;;;21.30;99.90;;;;;;5007513;28;20033;-79
2022/08/25 07:55:37;;;;;;;7.72;4.60;;;21.40;99.90;;;;;;5005854;28;20040;-79
2022/08/25 07:58:05;;;;;;;7.78;5.05;;;21.40;99.90;;;;;;5004659;28;20573;-81
2022/08/25 08:00:33;;;;;;;6.78;4.60;;;21.50;99.90;;;;;;5008540;28;20034;-77
2022/08/25 08:03:00;;;;;;;6.68;4.40;;;21.60;99.90;;;;;;5011456;28;20104;-79
2022/08/25 08:05:27;;;;;;;9.30;4.80;;;21.60;99.90;;;;;;5003882;28;20057;-77
2022/08/25 08:07:53;;;;;;;9.52;4.93;;;21.80;99.90;;;;;;5001284;28;20398;-76
2022/08/25 08:10:20;;;;;;;6.97;4.68;;;21.90;99.90;;;;;;5012954;28;20021;-75
2022/08/25 08:12:46;;;;;;;8.27;5.00;;;21.90;99.90;;;;;;5002658;28;20105;-74
2022/08/25 08:15:11;;;;;;;7.15;5.30;;;22.00;99.90;;;;;;5007518;28;20030;-75
2022/08/25 08:17:38;;;;;;;7.05;4.65;;;22.00;99.90;;;;;;5004906;28;20033;-82
2022/08/25 08:20:07;;;;;;;7.55;4.90;;;22.10;99.90;;;;;;5000098;28;20049;-80
2022/08/25 08:22:37;;;;;;;11.82;5.53;;;22.30;99.90;;;;;;5018451;28;20030;-79
2022/08/25 08:25:04;;;;;;;9.82;6.35;;;22.30;99.90;;;;;;5004544;28;20030;-79
2022/08/25 08:27:30;;;;;;;10.38;5.25;;;22.40;99.90;;;;;;5007326;28;20398;-80
2022/08/25 08:29:56;;;;;;;7.40;5.30;;;22.50;99.90;;;;;;5004207;28;20025;-80
2022/08/25 08:32:22;;;;;;;6.90;4.80;;;22.60;99.90;;;;;;5008496;28;20107;-79
2022/08/25 08:34:48;;;;;;;6.00;4.30;;;22.70;99.90;;;;;;5005475;28;20465;-77
2022/08/25 08:37:14;;;;;;;6.10;4.55;;;22.70;99.90;;;;;;5006851;28;20394;-77
2022/08/25 08:39:40;;;;;;;5.85;4.57;;;22.80;99.90;;;;;;5017843;28;20454;-85
2022/08/25 08:42:25;;;;;;;6.30;5.40;;;22.90;99.90;;;;;;5001001;28;20065;-82
2022/08/25 08:45:25;;;;;;;8.32;4.95;;;23.10;99.90;;;;;;5005778;28;20096;-77
2022/08/25 08:48:09;;;;;;;9.93;5.53;;;23.10;99.90;;;;;;5000463;28;20176;-77
2022/08/25 08:50:48;;;;;;;5.85;4.57;;;23.20;99.90;;;;;;5014970;28;20447;-80
2022/08/25 08:53:45;;;;;;;8.13;5.07;;;23.40;99.90;;;;;;5006851;28;20026;-78
2022/08/25 08:56:15;;;;;;;12.05;4.95;;;23.40;99.90;;;;;;5008860;28;20498;-76
2022/08/25 08:58:42;;;;;;;5.95;4.65;;;23.50;99.90;;;;;;5005783;28;20025;-77
2022/08/25 09:01:12;;;;;;;5.70;4.70;;;23.40;99.90;;;;;;5007351;28;20033;-78
2022/08/25 09:03:48;;;;;;;7.57;4.53;;;23.40;99.90;;;;;;5016894;28;20106;-77
2022/08/25 09:06:21;;;;;;;7.03;4.78;;;23.60;99.90;;;;;;5005826;28;20032;-81
2022/08/25 09:08:47;;;;;;;6.25;4.88;;;23.60;99.90;;;;;;5003647;28;20026;-81
2022/08/25 09:11:39;;;;;;;10.00;4.80;;;23.60;99.90;;;;;;5015746;28;20304;-80
2022/08/25 09:14:08;;;;;;;6.32;4.70;;;23.70;99.90;;;;;;5024750;28;20033;-78
2022/08/25 09:17:03;;;;;;;5.45;4.45;;;23.70;99.90;;;;;;5010156;28;20034;-77
2022/08/25 09:19:35;;;;;;;6.15;4.93;;;23.80;99.90;;;;;;5005134;28;20075;-77
2022/08/25 09:22:12;;;;;;;8.10;5.60;;;23.80;99.90;;;;;;5011663;28;20390;-76
2022/08/25 09:24:59;;;;;;;6.03;4.65;;;23.80;99.90;;;;;;5005886;28;20030;-78
2022/08/25 09:27:31;;;;;;;10.60;5.32;;;23.90;99.90;;;;;;5014645;28;20026;-76
2022/08/25 09:30:14;;;;;;;7.18;4.72;;;24.00;99.90;;;;;;5013264;28;20189;-77
2022/08/25 09:32:46;;;;;;;7.15;4.40;;;24.10;99.90;;;;;;5010556;28;20486;-76
2022/08/25 09:35:25;;;;;;;5.15;4.65;;;24.10;99.90;;;;;;5016915;28;20033;-76
2022/08/25 09:37:59;;;;;;;6.43;4.28;;;24.20;99.90;;;;;;5015777;28;20022;-76
2022/08/25 09:40:28;;;;;;;7.65;4.93;;;24.30;99.90;;;;;;5012394;28;20036;-76
2022/08/25 09:42:56;;;;;;;8.10;4.60;;;24.30;99.90;;;;;;5011048;28;20573;-77
2022/08/25 09:45:56;;;;;;;6.22;4.63;;;24.40;99.90;;;;;;5010440;28;20038;-76
2022/08/25 09:48:26;;;;;;;6.32;4.43;;;24.50;99.90;;;;;;4990123;28;20494;-76
2022/08/25 09:51:00;;;;;;;6.53;3.83;;;24.60;99.90;;;;;;5011181;28;20036;-77
2022/08/25 09:53:27;;;;;;;5.93;4.50;;;24.70;99.00;;;;;;5019657;28;20025;-76
2022/08/25 09:56:03;;;;;;;4.25;3.40;;;25.00;98.40;;;;;;5009198;28;20026;-76
2022/08/25 09:58:29;;;;;;;4.07;3.50;;;25.00;97.60;;;;;;5014458;28;20030;-76
2022/08/25 10:01:15;;;;;;;5.00;3.53;;;25.20;97.00;;;;;;5015389;28;20449;-77
2022/08/25 10:03:52;;;;;;;3.72;2.92;;;25.20;96.90;;;;;;5015226;28;20021;-76
2022/08/25 10:06:19;;;;;;;6.13;3.78;;;25.30;96.50;;;;;;5009306;28;20479;-76
2022/08/25 10:08:44;;;;;;;4.15;3.20;;;25.30;96.30;;;;;;5014860;28;20025;-76
2022/08/25 10:11:14;;;;;;;4.65;3.28;;;25.30;96.00;;;;;;5015632;28;20029;-76
2022/08/25 10:13:50;;;;;;;5.28;3.75;;;25.40;95.80;;;;;;5012717;28;20021;-77
2022/08/25 10:16:30;;;;;;;6.30;3.25;;;25.30;95.90;;;;;;4987298;28;20022;-78
2022/08/25 10:19:08;;;;;;;3.72;3.22;;;25.30;95.00;;;;;;5012826;28;20018;-77
2022/08/25 10:21:36;;;;;;;6.45;3.38;;;25.30;95.00;;;;;;5026848;28;20052;-77
2022/08/25 10:24:04;;;;;;;4.72;3.10;;;25.40;94.40;;;;;;5014242;28;20547;-77
2022/08/25 10:26:43;;;;;;;5.43;3.10;;;25.50;94.20;;;;;;5012297;28;20160;-77
2022/08/25 10:29:30;;;;;;;3.72;3.22;;;25.50;94.10;;;;;;5014317;28;20116;-77
2022/08/25 10:32:09;;;;;;;4.75;2.88;;;25.60;93.50;;;;;;5006252;28;20017;-77
2022/08/25 10:34:48;;;;;;;4.10;3.30;;;25.70;93.70;;;;;;5008853;28;20026;-77
2022/08/25 10:37:38;;;;;;;3.15;2.85;;;25.80;93.60;;;;;;5029543;28;20028;-77
2022/08/25 10:40:13;;;;;;;4.40;3.10;;;25.80;93.30;;;;;;5011987;28;20041;-77
2022/08/25 10:43:01;;;;;;;4.85;2.70;;;25.90;93.30;;;;;;5008102;28;20095;-77
2022/08/25 10:45:44;;;;;;;2.60;2.40;;;25.90;92.20;;;;;;5009726;28;20044;-77
2022/08/25 10:48:19;;;;;;;3.43;2.80;;;25.90;91.90;;;;;;5006210;28;20021;-77
2022/08/25 10:50:45;;;;;;;3.25;2.67;;;25.90;92.30;;;;;;5029533;28;20271;-76
2022/08/25 10:53:20;;;;;;;4.05;2.78;;;25.90;92.00;;;;;;5004920;28;20037;-76
2022/08/25 10:55:52;;;;;;;4.30;2.90;;;26.00;91.70;;;;;;5009311;28;20589;-76
2022/08/25 10:58:51;;;;;;;4.35;2.67;;;26.00;91.40;;;;;;5010710;28;20034;-76
2022/08/25 11:01:32;;;;;;;3.72;2.53;;;26.00;91.20;;;;;;5005900;28;20025;-76
2022/08/25 11:04:25;;;;;;;5.38;3.28;;;26.10;91.10;;;;;;5007358;28;20025;-76
2022/08/25 11:06:59;;;;;;;2.95;2.65;;;26.20;90.50;;;;;;5010864;28;20514;-76
2022/08/25 11:09:32;;;;;;;5.70;2.83;;;26.20;90.40;;;;;;5015340;28;20029;-76
2022/08/25 11:12:03;;;;;;;2.85;2.38;;;26.30;90.50;;;;;;5013817;28;20432;-76
2022/08/25 11:14:40;;;;;;;3.85;2.95;;;26.30;90.60;;;;;;5008974;28;20064;-76
2022/08/25 11:17:34;;;;;;;4.95;2.42;;;26.40;90.40;;;;;;5006191;28;20022;-76
2022/08/25 11:20:09;;;;;;;2.60;2.40;;;26.40;90.20;;;;;;5004804;28;20681;-76
2022/08/25 11:22:44;;;;;;;2.60;1.92;;;26.40;89.80;;;;;;5012235;28;20389;-76
2022/08/25 11:25:24;;;;;;;3.92;3.15;;;26.40;89.70;;;;;;5013923;28;20038;-76
2022/08/25 11:28:09;;;;;;;5.57;2.58;;;26.50;89.30;;;;;;5020772;28;20029;-75
2022/08/25 11:30:36;;;;;;;2.80;2.20;;;26.50;87.70;;;;;;4991339;28;20018;-74
2022/08/25 11:33:03;;;;;;;2.90;2.33;;;26.50;87.60;;;;;;5019844;28;20025;-77
2022/08/25 11:35:34;;;;;;;2.30;2.10;;;26.50;87.80;;;;;;5041045;23;20096;-81
2022/08/25 11:38:15;;;;;;;4.15;2.53;;;26.60;88.20;;;;;;5010607;28;20534;-81
2022/08/25 11:41:08;;;;;;;3.90;3.00;;;26.60;88.40;;;;;;5016553;28;20072;-82
2022/08/25 11:43:52;;;;;;;5.97;2.97;;;26.60;88.70;;;;;;5012504;28;20030;-82
2022/08/25 11:46:26;;;;;;;2.72;2.50;;;26.70;88.00;;;;;;5014423;28;20026;-82
2022/08/25 11:48:59;;;;;;;2.97;2.50;;;26.80;87.50;;;;;;5010221;28;20479;-82
2022/08/25 11:51:39;;;;;;;4.03;2.77;;;26.80;88.00;;;;;;5004002;28;20403;-82
2022/08/25 11:54:34;;;;;;;5.53;2.63;;;26.90;87.10;;;;;;5012606;28;20033;-81
2022/08/25 11:57:07;;;;;;;2.20;1.95;;;27.00;87.00;;;;;;5031563;28;20486;-82
2022/08/25 11:59:48;;;;;;;3.28;2.42;;;27.10;86.60;;;;;;5023958;28;20376;-83
2022/08/25 12:02:35;;;;;;;3.00;2.47;;;27.20;87.00;;;;;;5020654;28;20409;-82
2022/08/25 12:05:07;;;;;;;3.30;2.47;;;27.20;86.40;;;;;;5010244;28;20049;-83
2022/08/25 12:11:01;;;;;;;4.30;2.60;;;27.30;84.80;;;;;;4992756;28;20027;-82
2022/08/25 12:13:44;;;;;;;3.88;2.20;;;27.30;83.10;;;;;;5000151;28;20089;-83
2022/08/25 12:16:35;;;;;;;3.10;2.20;;;27.30;83.40;;;;;;5006093;28;20386;-83
2022/08/25 12:19:26;;;;;;;5.15;2.30;;;27.30;83.50;;;;;;5026965;28;20479;-82
2022/08/25 12:21:54;;;;;;;4.05;2.15;;;27.20;82.00;;;;;;4997494;28;20025;-82
2022/08/25 12:24:42;;;;;;;3.33;2.15;;;27.10;81.40;;;;;;5001279;28;20049;-81
2022/08/25 12:27:31;;;;;;;2.70;1.92;;;27.10;81.70;;;;;;5009548;28;20493;-82
2022/08/25 12:29:57;;;;;;;3.53;2.50;;;27.10;81.00;;;;;;5024142;28;20029;-82
2022/08/25 12:32:41;;;;;;;2.67;2.47;;;27.10;81.70;;;;;;5014950;28;20505;-80
2022/08/25 12:35:28;;;;;;;2.30;1.98;;;27.20;81.60;;;;;;5002320;28;20117;-81
2022/08/25 12:38:06;;;;;;;3.33;2.38;;;27.10;82.00;;;;;;4999520;28;20034;-81
2022/08/25 12:40:38;;;;;;;3.30;2.25;;;27.10;80.80;;;;;;5000146;28;20033;-79
2022/08/25 12:43:12;;;;;;;5.00;2.05;;;27.10;81.30;;;;;;5011503;28;20049;-78
2022/08/25 12:45:45;;;;;;;2.60;2.40;;;27.10;79.90;;;;;;4997418;28;20111;-84
2022/08/25 12:48:26;;;;;;;2.90;2.38;;;27.10;80.20;;;;;;5010193;28;20026;-84
2022/08/25 12:50:57;;;;;;;2.72;2.13;;;27.10;80.50;;;;;;5012324;28;20028;-83
2022/08/25 12:53:40;;;;;;;3.15;2.38;;;27.10;80.10;;;;;;5006299;28;20395;-82
2022/08/25 12:56:27;;;;;;;2.95;1.90;;;27.20;80.30;;;;;;5006900;28;20393;-83
2022/08/25 12:59:01;;;;;;;5.13;2.00;;;27.10;79.30;;;;;;5007744;28;20037;-82
2022/08/25 13:01:42;;;;;;;2.83;2.30;;;27.10;79.90;;;;;;5010443;28;20033;-83
2022/08/25 13:04:18;;;;;;;4.03;2.35;;;27.20;79.40;;;;;;5005226;28;20029;-83
2022/08/25 13:07:02;;;;;;;2.10;1.85;;;27.20;78.30;;;;;;5010850;28;20030;-83
2022/08/25 13:09:46;;;;;;;3.30;2.00;;;27.30;78.60;;;;;;5007164;28;20049;-83
2022/08/25 13:12:39;;;;;;;2.08;1.75;;;27.30;77.90;;;;;;5019230;28;20049;-83